AES weather

El Socorro Airport
Hermosillo, Sonora, Mexico

Public forecast

Using degrees Celsius for public forecast. Weather courtesy of forecast.io.

METAR (pilot weather report)

Closest report is General Ignacio P. Garcia International Airport, 13.8 nm (25.6 km) NE. Retrieved 2019/05/19 11:41 UTC (43 minutes ago):

MMHO 191141Z 00000KT 10SM SCT200 17/04 A2985 RMK SLP105 57006 900 8/008 HZY

TAF (pilot weather forecast)

Closest forecast is General Ignacio P. Garcia International Airport, 13.8 nm (25.6 km) NE. Retrieved 2019/05/19 06:45 UTC (6 hours ago):

TAF MMHO 190443Z 1906/2006 22005KT P6SM SKC FM191900 24010KT P6SM SKC FM200300 24005KT P6SM SKC